MSC Barbara — HODU — position and weather

sailwx.info

Track history (hours):
 
Tides and Currents Weather Stations Pressure Air Temp Water Temp Dewpoint Dewpoint Depression Visibility Wind Speed Wind Dir Waves Ship Positions

MSC Barbara

Last reported at 2015-Mar-27 04:33 UTC. Time now 2015-Mar-29 09:21 UTC.
Position N 50°00' W 002°47'.

Length 304 m; draft 10.7 m.

Type: Ship. MMSI: 353775000.

Date/timePositionNaut miles runAvg speedWind from/ knotsBaromVisibWave heightAir tempDewpointWater temp
2015-Mar-27 04:33N 50°00' W 002°47'2019.2
2015-Mar-27 03:30N 50°04' W 002°16'4217.2
2015-Mar-27 01:04N 49°49' W 001°16'1015.8
2015-Mar-27 00:26N 49°46' W 001°01'1516.6
2015-Mar-26 23:33N 49°40' W 000°40'1817.5
2015-Mar-26 22:33N 49°33' W 000°15'1413.6
2015-Mar-26 21:33N 49°29' E 000°05'3 2.8
2015-Mar-26 20:32N 49°28' E 000°08'0 0.0
2015-Mar-26 19:33N 49°28' E 000°08'0 0.0
2015-Mar-26 18:33N 49°28' E 000°08'0 0.0
2015-Mar-26 17:33N 49°28' E 000°08'0 0.0
2015-Mar-26 16:34N 49°28' E 000°08'0 0.0
2015-Mar-26 15:33N 49°28' E 000°08'0 0.0
2015-Mar-26 14:34N 49°28' E 000°08'0 0.0
2015-Mar-26 13:34N 49°28' E 000°08'0 0.0
2015-Mar-26 12:33N 49°28' E 000°08'0 0.0
2015-Mar-26 11:34N 49°28' E 000°08'0 0.0
2015-Mar-26 10:33N 49°28' E 000°08'0 0.0
2015-Mar-26 09:33N 49°28' E 000°08'0 0.0
2015-Mar-26 08:34N 49°28' E 000°08'0 0.0
2015-Mar-26 07:33N 49°28' E 000°08'0 0.0
2015-Mar-26 06:34N 49°28' E 000°08'0 0.0
2015-Mar-26 05:33N 49°28' E 000°08'0 0.0
2015-Mar-26 04:33N 49°28' E 000°08'4 4.1
2015-Mar-26 03:33N 49°30' E 000°03'1211.9
2015-Mar-26 02:33N 49°37' W 000°11'1918.4
2015-Mar-26 01:32N 49°56' W 000°08'3916.0
2015-Mar-25 23:07N 50°31' E 000°17'1019.0
2015-Mar-25 22:33N 50°35' E 000°32'2020.2
2015-Mar-25 21:34N 50°47' E 000°58'2121.0
2015-Mar-25 20:32N 51°02' E 001°23'1919.9
2015-Mar-25 19:33N 51°14' E 001°47'1615.7
2015-Mar-25 18:33N 51°23' E 002°08'1817.7
2015-Mar-25 17:33N 51°23' E 002°36'1414.2
2015-Mar-25 16:33N 51°23' E 002°59'1414.1
2015-Mar-25 15:33N 51°24' E 003°21'1110.9
2015-Mar-25 14:33N 51°26' E 003°39'1110.6
2015-Mar-25 13:33N 51°21' E 003°54'7 7.1
2015-Mar-25 12:33N 51°22' E 004°05'8 7.6
2015-Mar-25 11:34N 51°21' E 004°17'0 0.0
2015-Mar-25 10:34N 51°21' E 004°17'2 2.2
2015-Mar-25 09:34N 51°20' E 004°20'0 0.4
2015-Mar-25 08:30N 51°20' E 004°21'0 0.0
2015-Mar-25 07:27N 51°20' E 004°21'0 0.0
2015-Mar-25 06:26N 51°20' E 004°21'0 0.0
2015-Mar-25 05:33N 51°20' E 004°21'0 0.0
2015-Mar-25 04:33N 51°20' E 004°21'0 0.0
2015-Mar-25 03:33N 51°20' E 004°21'0 0.0
2015-Mar-25 02:33N 51°20' E 004°21'0 0.0
2015-Mar-25 01:33N 51°20' E 004°21'0 0.0
2015-Mar-25 00:33N 51°20' E 004°21'0 0.0
2015-Mar-24 23:33N 51°20' E 004°21'0 0.0
2015-Mar-24 22:33N 51°20' E 004°21'0 0.0
2015-Mar-24 21:33N 51°20' E 004°21'0 0.0
2015-Mar-24 20:33N 51°20' E 004°21'0 0.0
2015-Mar-24 19:33N 51°20' E 004°21'0 0.0
2015-Mar-24 18:33N 51°20' E 004°21'0 0.0
2015-Mar-24 17:33N 51°20' E 004°21'0 0.0
2015-Mar-24 16:33N 51°20' E 004°21'0 0.0
2015-Mar-24 15:33N 51°20' E 004°21'0 0.0
2015-Mar-24 14:33N 51°20' E 004°21'0 0.0
2015-Mar-24 13:33N 51°20' E 004°21'0 0.0
2015-Mar-24 12:33N 51°20' E 004°21'0 0.0
2015-Mar-24 11:33N 51°20' E 004°21'0 0.0
2015-Mar-24 10:33N 51°20' E 004°21'0 0.0
2015-Mar-24 09:33N 51°20' E 004°21'0 0.0
2015-Mar-24 08:34N 51°20' E 004°21'0 0.0
2015-Mar-24 07:34N 51°20' E 004°21'0 0.0
2015-Mar-24 06:33N 51°20' E 004°21'0 0.0
2015-Mar-24 05:33N 51°20' E 004°21'0 0.0
2015-Mar-24 04:33N 51°20' E 004°21'0 0.0
2015-Mar-24 03:33N 51°20' E 004°21'0 0.0
2015-Mar-24 02:33N 51°20' E 004°21'0 0.0
2015-Mar-24 01:33N 51°20' E 004°21'0 0.0
2015-Mar-24 00:33N 51°20' E 004°21'0 0.0
2015-Mar-23 23:33N 51°20' E 004°21'0 0.0
2015-Mar-23 22:33N 51°20' E 004°21'1 0.7
2015-Mar-23 21:34N 51°20' E 004°19'2 1.7
2015-Mar-23 20:33N 51°21' E 004°17'2 1.8
2015-Mar-23 19:33N 51°21' E 004°15'2 2.4
2015-Mar-23 18:33N 51°23' E 004°13'7 6.6
2015-Mar-23 17:33N 51°24' E 004°02'6 6.1
2015-Mar-23 16:34N 51°21' E 003°53'1211.6
2015-Mar-23 15:33N 51°26' E 003°36'1515.4
2015-Mar-23 14:33N 51°24' E 003°11'8 8.5
2015-Mar-23 13:33N 51°32' E 003°08'1312.6
2015-Mar-23 12:33N 51°45' E 003°11'7 5.0
2015-Mar-23 11:13N 51°51' E 003°15'7 8.9
2015-Mar-23 10:29N 51°57' E 003°20'1614.2
2015-Mar-23 09:23N 52°03' E 003°43'910.7
2015-Mar-23 08:33N 52°02' E 003°57'6 5.5
2015-Mar-23 07:33N 51°58' E 004°03'0 0.3
2015-Mar-23 06:30N 51°57' E 004°03'0 0.0
2015-Mar-23 05:32N 51°57' E 004°03'0 0.0
2015-Mar-23 04:29N 51°57' E 004°03'0 0.0
2015-Mar-23 03:29N 51°57' E 004°03'0 0.0
2015-Mar-23 02:28N 51°57' E 004°03'0 0.0
2015-Mar-23 01:31N 51°57' E 004°03'0 0.0
2015-Mar-23 00:33N 51°57' E 004°03'0 0.0
2015-Mar-22 23:33N 51°57' E 004°03'0 0.0
2015-Mar-22 22:32N 51°57' E 004°03'0 0.0
2015-Mar-22 21:32N 51°57' E 004°03'1 0.7
2015-Mar-22 20:30N 51°58' E 004°04'0 0.0
2015-Mar-22 19:33N 51°58' E 004°04'0 0.0
2015-Mar-22 18:32N 51°58' E 004°04'0 0.0
2015-Mar-22 17:32N 51°58' E 004°04'0 0.0
2015-Mar-22 16:32N 51°58' E 004°04'0 0.0
2015-Mar-22 15:31N 51°58' E 004°04'0 0.0
2015-Mar-22 14:31N 51°58' E 004°04'0 0.0
2015-Mar-22 13:33N 51°58' E 004°04'0 0.0
2015-Mar-22 12:33N 51°58' E 004°04'0 0.0
2015-Mar-22 11:26N 51°58' E 004°04'0 0.0
2015-Mar-22 10:32N 51°58' E 004°04'0 0.0
2015-Mar-22 09:32N 51°58' E 004°04'0 0.0
2015-Mar-22 08:28N 51°58' E 004°04'0 0.0
2015-Mar-22 07:33N 51°58' E 004°04'0 0.0
2015-Mar-22 06:33N 51°58' E 004°04'0 0.0
2015-Mar-22 05:33N 51°58' E 004°04'0 0.0
2015-Mar-22 04:33N 51°58' E 004°04'0 0.0
2015-Mar-22 03:33N 51°58' E 004°04'0 0.0
2015-Mar-22 02:33N 51°58' E 004°04'0 0.0
2015-Mar-22 01:33N 51°58' E 004°04'0 0.0
2015-Mar-22 00:33N 51°58' E 004°04'0 0.0
2015-Mar-21 23:33N 51°58' E 004°04'0 0.0
2015-Mar-21 22:33N 51°58' E 004°04'0 0.0
2015-Mar-21 21:33N 51°58' E 004°04'5 5.2
2015-Mar-21 20:33N 51°60' E 003°56'6412.5
2015-Mar-21 15:28N 51°36' E 002°21'1617.6
2015-Mar-21 14:33N 51°21' E 002°10'2019.8
2015-Mar-21 13:33N 51°07' E 001°47'6419.4
2015-Mar-21 10:17N 50°25' E 000°31'  
2015-Mar-17 17:15N 29°04' W 015°00'1319.1
2015-Mar-17 16:33N 28°51' W 015°05'1919.1
2015-Mar-17 15:33N 28°33' W 015°12'1919.2
2015-Mar-17 14:33N 28°15' W 015°19'8 8.5
2015-Mar-17 13:33N 28°08' W 015°25'0 0.2
2015-Mar-17 12:30N 28°08' W 015°25'0 0.0
2015-Mar-17 11:20N 28°08' W 015°25'0 0.0
2015-Mar-17 10:33N 28°08' W 015°25'0 0.0
2015-Mar-17 09:31N 28°08' W 015°25'0 0.0
2015-Mar-17 08:33N 28°08' W 015°25'0 0.0
2015-Mar-17 07:33N 28°08' W 015°25'0 0.0
2015-Mar-17 06:33N 28°08' W 015°25'0 0.0
2015-Mar-17 05:33N 28°08' W 015°25'0 0.0
2015-Mar-17 04:34N 28°08' W 015°25'  
Track history (hours):
 
Tides and Currents Weather Stations Pressure Air Temp Water Temp Dewpoint Dewpoint Depression Visibility Wind Speed Wind Dir Waves Ship Positions

MSC Barbara

Last reported at 2015-Mar-27 04:33 UTC. Time now 2015-Mar-29 09:21 UTC.
Position N 50°00' W 002°47'.

Length 304 m; draft 10.7 m.

Type: Ship. MMSI: 353775000.

Date/timePositionNaut miles runAvg speedWind from/ knotsBaromVisibWave heightAir tempDewpointWater temp
2015-Mar-27 04:33N 50°00' W 002°47'2019.2
2015-Mar-27 03:30N 50°04' W 002°16'4217.2
2015-Mar-27 01:04N 49°49' W 001°16'1015.8
2015-Mar-27 00:26N 49°46' W 001°01'1516.6
2015-Mar-26 23:33N 49°40' W 000°40'1817.5
2015-Mar-26 22:33N 49°33' W 000°15'1413.6
2015-Mar-26 21:33N 49°29' E 000°05'3 2.8
2015-Mar-26 20:32N 49°28' E 000°08'0 0.0
2015-Mar-26 19:33N 49°28' E 000°08'0 0.0
2015-Mar-26 18:33N 49°28' E 000°08'0 0.0
2015-Mar-26 17:33N 49°28' E 000°08'0 0.0
2015-Mar-26 16:34N 49°28' E 000°08'0 0.0
2015-Mar-26 15:33N 49°28' E 000°08'0 0.0
2015-Mar-26 14:34N 49°28' E 000°08'0 0.0
2015-Mar-26 13:34N 49°28' E 000°08'0 0.0
2015-Mar-26 12:33N 49°28' E 000°08'0 0.0
2015-Mar-26 11:34N 49°28' E 000°08'0 0.0
2015-Mar-26 10:33N 49°28' E 000°08'0 0.0
2015-Mar-26 09:33N 49°28' E 000°08'0 0.0
2015-Mar-26 08:34N 49°28' E 000°08'0 0.0
2015-Mar-26 07:33N 49°28' E 000°08'0 0.0
2015-Mar-26 06:34N 49°28' E 000°08'0 0.0
2015-Mar-26 05:33N 49°28' E 000°08'0 0.0
2015-Mar-26 04:33N 49°28' E 000°08'4 4.1
2015-Mar-26 03:33N 49°30' E 000°03'1211.9
2015-Mar-26 02:33N 49°37' W 000°11'1918.4
2015-Mar-26 01:32N 49°56' W 000°08'3916.0
2015-Mar-25 23:07N 50°31' E 000°17'1019.0
2015-Mar-25 22:33N 50°35' E 000°32'2020.2
2015-Mar-25 21:34N 50°47' E 000°58'2121.0
2015-Mar-25 20:32N 51°02' E 001°23'1919.9
2015-Mar-25 19:33N 51°14' E 001°47'1615.7
2015-Mar-25 18:33N 51°23' E 002°08'1817.7
2015-Mar-25 17:33N 51°23' E 002°36'1414.2
2015-Mar-25 16:33N 51°23' E 002°59'1414.1
2015-Mar-25 15:33N 51°24' E 003°21'1110.9
2015-Mar-25 14:33N 51°26' E 003°39'1110.6
2015-Mar-25 13:33N 51°21' E 003°54'7 7.1
2015-Mar-25 12:33N 51°22' E 004°05'8 7.6
2015-Mar-25 11:34N 51°21' E 004°17'0 0.0
2015-Mar-25 10:34N 51°21' E 004°17'2 2.2
2015-Mar-25 09:34N 51°20' E 004°20'0 0.4
2015-Mar-25 08:30N 51°20' E 004°21'0 0.0
2015-Mar-25 07:27N 51°20' E 004°21'0 0.0
2015-Mar-25 06:26N 51°20' E 004°21'0 0.0
2015-Mar-25 05:33N 51°20' E 004°21'0 0.0
2015-Mar-25 04:33N 51°20' E 004°21'0 0.0
2015-Mar-25 03:33N 51°20' E 004°21'0 0.0
2015-Mar-25 02:33N 51°20' E 004°21'0 0.0
2015-Mar-25 01:33N 51°20' E 004°21'0 0.0
2015-Mar-25 00:33N 51°20' E 004°21'0 0.0
2015-Mar-24 23:33N 51°20' E 004°21'0 0.0
2015-Mar-24 22:33N 51°20' E 004°21'0 0.0
2015-Mar-24 21:33N 51°20' E 004°21'0 0.0
2015-Mar-24 20:33N 51°20' E 004°21'0 0.0
2015-Mar-24 19:33N 51°20' E 004°21'0 0.0
2015-Mar-24 18:33N 51°20' E 004°21'0 0.0
2015-Mar-24 17:33N 51°20' E 004°21'0 0.0
2015-Mar-24 16:33N 51°20' E 004°21'0 0.0
2015-Mar-24 15:33N 51°20' E 004°21'0 0.0
2015-Mar-24 14:33N 51°20' E 004°21'0 0.0
2015-Mar-24 13:33N 51°20' E 004°21'0 0.0
2015-Mar-24 12:33N 51°20' E 004°21'0 0.0
2015-Mar-24 11:33N 51°20' E 004°21'0 0.0
2015-Mar-24 10:33N 51°20' E 004°21'0 0.0
2015-Mar-24 09:33N 51°20' E 004°21'0 0.0
2015-Mar-24 08:34N 51°20' E 004°21'0 0.0
2015-Mar-24 07:34N 51°20' E 004°21'0 0.0
2015-Mar-24 06:33N 51°20' E 004°21'0 0.0
2015-Mar-24 05:33N 51°20' E 004°21'0 0.0
2015-Mar-24 04:33N 51°20' E 004°21'0 0.0
2015-Mar-24 03:33N 51°20' E 004°21'0 0.0
2015-Mar-24 02:33N 51°20' E 004°21'0 0.0
2015-Mar-24 01:33N 51°20' E 004°21'0 0.0
2015-Mar-24 00:33N 51°20' E 004°21'0 0.0
2015-Mar-23 23:33N 51°20' E 004°21'0 0.0
2015-Mar-23 22:33N 51°20' E 004°21'1 0.7
2015-Mar-23 21:34N 51°20' E 004°19'2 1.7
2015-Mar-23 20:33N 51°21' E 004°17'2 1.8
2015-Mar-23 19:33N 51°21' E 004°15'2 2.4
2015-Mar-23 18:33N 51°23' E 004°13'7 6.6
2015-Mar-23 17:33N 51°24' E 004°02'6 6.1
2015-Mar-23 16:34N 51°21' E 003°53'1211.6
2015-Mar-23 15:33N 51°26' E 003°36'1515.4
2015-Mar-23 14:33N 51°24' E 003°11'8 8.5
2015-Mar-23 13:33N 51°32' E 003°08'1312.6
2015-Mar-23 12:33N 51°45' E 003°11'7 5.0
2015-Mar-23 11:13N 51°51' E 003°15'7 8.9
2015-Mar-23 10:29N 51°57' E 003°20'1614.2
2015-Mar-23 09:23N 52°03' E 003°43'910.7
2015-Mar-23 08:33N 52°02' E 003°57'6 5.5
2015-Mar-23 07:33N 51°58' E 004°03'0 0.3
2015-Mar-23 06:30N 51°57' E 004°03'0 0.0
2015-Mar-23 05:32N 51°57' E 004°03'0 0.0
2015-Mar-23 04:29N 51°57' E 004°03'0 0.0
2015-Mar-23 03:29N 51°57' E 004°03'0 0.0
2015-Mar-23 02:28N 51°57' E 004°03'0 0.0
2015-Mar-23 01:31N 51°57' E 004°03'0 0.0
2015-Mar-23 00:33N 51°57' E 004°03'0 0.0
2015-Mar-22 23:33N 51°57' E 004°03'0 0.0
2015-Mar-22 22:32N 51°57' E 004°03'0 0.0
2015-Mar-22 21:32N 51°57' E 004°03'1 0.7
2015-Mar-22 20:30N 51°58' E 004°04'0 0.0
2015-Mar-22 19:33N 51°58' E 004°04'0 0.0
2015-Mar-22 18:32N 51°58' E 004°04'0 0.0
2015-Mar-22 17:32N 51°58' E 004°04'0 0.0
2015-Mar-22 16:32N 51°58' E 004°04'0 0.0
2015-Mar-22 15:31N 51°58' E 004°04'0 0.0
2015-Mar-22 14:31N 51°58' E 004°04'0 0.0
2015-Mar-22 13:33N 51°58' E 004°04'0 0.0
2015-Mar-22 12:33N 51°58' E 004°04'0 0.0
2015-Mar-22 11:26N 51°58' E 004°04'0 0.0
2015-Mar-22 10:32N 51°58' E 004°04'0 0.0
2015-Mar-22 09:32N 51°58' E 004°04'0 0.0
2015-Mar-22 08:28N 51°58' E 004°04'0 0.0
2015-Mar-22 07:33N 51°58' E 004°04'0 0.0
2015-Mar-22 06:33N 51°58' E 004°04'0 0.0
2015-Mar-22 05:33N 51°58' E 004°04'0 0.0
2015-Mar-22 04:33N 51°58' E 004°04'0 0.0
2015-Mar-22 03:33N 51°58' E 004°04'0 0.0
2015-Mar-22 02:33N 51°58' E 004°04'0 0.0
2015-Mar-22 01:33N 51°58' E 004°04'0 0.0
2015-Mar-22 00:33N 51°58' E 004°04'0 0.0
2015-Mar-21 23:33N 51°58' E 004°04'0 0.0
2015-Mar-21 22:33N 51°58' E 004°04'0 0.0
2015-Mar-21 21:33N 51°58' E 004°04'5 5.2
2015-Mar-21 20:33N 51°60' E 003°56'6412.5
2015-Mar-21 15:28N 51°36' E 002°21'1617.6
2015-Mar-21 14:33N 51°21' E 002°10'2019.8
2015-Mar-21 13:33N 51°07' E 001°47'6419.4
2015-Mar-21 10:17N 50°25' E 000°31'  
2015-Mar-17 17:15N 29°04' W 015°00'1319.1
2015-Mar-17 16:33N 28°51' W 015°05'1919.1
2015-Mar-17 15:33N 28°33' W 015°12'1919.2
2015-Mar-17 14:33N 28°15' W 015°19'8 8.5
2015-Mar-17 13:33N 28°08' W 015°25'0 0.2
2015-Mar-17 12:30N 28°08' W 015°25'0 0.0
2015-Mar-17 11:20N 28°08' W 015°25'0 0.0
2015-Mar-17 10:33N 28°08' W 015°25'0 0.0
2015-Mar-17 09:31N 28°08' W 015°25'0 0.0
2015-Mar-17 08:33N 28°08' W 015°25'0 0.0
2015-Mar-17 07:33N 28°08' W 015°25'0 0.0
2015-Mar-17 06:33N 28°08' W 015°25'0 0.0
2015-Mar-17 05:33N 28°08' W 015°25'0 0.0
2015-Mar-17 04:34N 28°08' W 015°25'  

Dump ship's entire track history